createdAt,value
2022-11-04T00:01:43.446Z,2.60
2022-11-04T00:04:12.799Z,2.43
2022-11-04T00:06:40.665Z,2.60
2022-11-04T00:09:12.263Z,2.50
2022-11-04T00:11:58.253Z,2.33
2022-11-04T00:14:25.403Z,2.87
2022-11-04T00:17:11.019Z,3.27
2022-11-04T00:19:56.636Z,3.20
2022-11-04T00:22:41.998Z,2.90
2022-11-04T00:25:29.717Z,3.30
2022-11-04T00:28:25.636Z,3.23
2022-11-04T00:30:57.412Z,2.90
2022-11-04T00:33:27.428Z,3.43
2022-11-04T00:35:57.226Z,2.70
2022-11-04T00:38:25.711Z,3.77
2022-11-04T00:40:54.051Z,3.80
2022-11-04T00:43:21.106Z,3.03
2022-11-04T00:45:48.071Z,3.87
2022-11-04T00:48:15.034Z,3.87
2022-11-04T00:50:42.483Z,3.87
2022-11-04T00:53:09.836Z,3.37
2022-11-04T00:55:37.053Z,3.97
2022-11-04T00:58:05.352Z,3.77
2022-11-04T01:00:32.353Z,3.73
2022-11-04T01:03:00.267Z,4.23
2022-11-04T01:05:27.583Z,4.07
2022-11-04T01:07:54.657Z,4.43
2022-11-04T01:10:21.703Z,4.13
2022-11-04T01:12:48.676Z,3.57
2022-11-04T01:15:17.073Z,3.50
2022-11-04T01:17:44.039Z,3.40
2022-11-04T01:20:13.470Z,3.43
2022-11-04T01:22:40.761Z,4.17
2022-11-04T01:25:09.415Z,4.37
2022-11-04T01:27:36.456Z,3.67
2022-11-04T01:30:04.535Z,4.23
2022-11-04T01:32:32.823Z,4.10
2022-11-04T01:34:59.758Z,4.17
2022-11-04T01:37:27.215Z,3.60
2022-11-04T01:39:54.176Z,4.30
2022-11-04T01:42:21.912Z,3.70
2022-11-04T01:44:58.084Z,4.03
2022-11-04T01:47:36.768Z,3.63
2022-11-04T01:50:10.873Z,4.20
2022-11-04T01:52:48.887Z,4.77
2022-11-04T01:55:21.196Z,4.40
2022-11-04T01:57:52.803Z,4.17
2022-11-04T02:00:20.262Z,4.57
2022-11-04T02:02:58.163Z,4.27
2022-11-04T02:05:25.219Z,4.57
2022-11-04T02:07:58.077Z,4.33
2022-11-04T02:10:29.511Z,4.43
2022-11-04T02:12:59.256Z,4.70
2022-11-04T02:15:39.921Z,4.80
2022-11-04T02:18:37.128Z,5.53
2022-11-04T02:21:42.881Z,5.57
2022-11-04T02:24:34.495Z,5.37
2022-11-04T02:27:28.773Z,5.20
2022-11-04T02:30:10.129Z,4.83
2022-11-04T02:33:03.539Z,4.90
2022-11-04T02:35:47.631Z,4.97
2022-11-04T02:38:30.928Z,5.20
2022-11-04T02:41:06.807Z,4.77
2022-11-04T02:43:49.701Z,4.10
2022-11-04T02:46:28.192Z,3.73
2022-11-04T02:49:02.858Z,4.00
2022-11-04T02:51:37.233Z,3.93
2022-11-04T02:54:11.223Z,3.40
2022-11-04T02:56:46.617Z,3.20
2022-11-04T02:59:22.140Z,2.77
2022-11-04T03:01:56.453Z,2.40
2022-11-04T03:04:29.296Z,2.20
2022-11-04T03:06:59.237Z,1.90
2022-11-04T03:09:30.933Z,1.50
2022-11-04T03:12:04.315Z,1.60
2022-11-04T03:14:40.968Z,1.20
2022-11-04T03:17:20.993Z,1.10
2022-11-04T03:19:56.265Z,1.00
2022-11-04T03:22:41.091Z,1.20
2022-11-04T03:25:10.157Z,1.50
2022-11-04T03:27:49.903Z,1.00
2022-11-04T03:30:20.168Z,1.50
2022-11-04T03:33:01.785Z,1.20
2022-11-04T03:35:29.637Z,1.37
2022-11-04T03:37:58.339Z,1.20
2022-11-04T03:40:26.764Z,1.17
2022-11-04T03:43:00.024Z,1.50
2022-11-04T03:45:27.621Z,1.50
2022-11-04T03:47:58.010Z,1.60
2022-11-04T03:50:28.608Z,1.80
2022-11-04T03:55:56.692Z,1.80
2022-11-04T03:58:37.129Z,1.80
2022-11-04T04:01:15.985Z,2.33
2022-11-04T04:03:54.456Z,1.87
2022-11-04T04:06:28.800Z,2.30
2022-11-04T04:09:03.619Z,1.73
2022-11-04T04:11:42.428Z,2.40
2022-11-04T04:14:38.914Z,2.90
2022-11-04T04:17:14.175Z,2.60
2022-11-04T04:19:47.888Z,2.67
2022-11-04T04:22:21.464Z,2.33
2022-11-04T04:25:13.727Z,2.50
2022-11-04T04:27:42.918Z,2.70
2022-11-04T04:30:13.851Z,2.87
2022-11-04T04:32:45.313Z,2.90
2022-11-04T04:35:33.427Z,2.70
2022-11-04T04:38:24.957Z,2.33
2022-11-04T04:41:19.629Z,2.20
2022-11-04T04:44:05.665Z,2.43
2022-11-04T04:46:33.997Z,3.20
2022-11-04T04:49:05.709Z,3.33
2022-11-04T04:51:38.525Z,2.70
2022-11-04T04:54:06.753Z,2.87
2022-11-04T04:56:33.706Z,3.50
2022-11-04T04:59:00.653Z,2.87
2022-11-04T05:01:28.186Z,2.67
2022-11-04T05:03:55.290Z,3.13
2022-11-04T05:06:22.346Z,3.80
2022-11-04T05:08:50.653Z,3.70
2022-11-04T05:11:20.495Z,3.30
2022-11-04T05:13:49.697Z,3.83
2022-11-04T05:16:16.665Z,3.67
2022-11-04T05:18:43.598Z,3.90
2022-11-04T05:21:15.449Z,3.13
2022-11-04T05:23:42.360Z,3.80
2022-11-04T05:26:10.586Z,3.33
2022-11-04T05:28:38.519Z,3.50
2022-11-04T05:31:07.413Z,3.60
2022-11-04T05:33:34.465Z,3.23
2022-11-04T05:36:09.660Z,3.27
2022-11-04T05:38:36.934Z,3.53
2022-11-04T05:41:05.127Z,3.97
2022-11-04T05:43:34.297Z,3.43
2022-11-04T05:46:01.773Z,3.10
2022-11-04T05:48:29.429Z,3.10
2022-11-04T05:50:57.036Z,3.60
2022-11-04T05:53:24.080Z,3.00
2022-11-04T05:55:51.329Z,3.60
2022-11-04T05:58:18.237Z,3.70
2022-11-04T06:00:46.499Z,3.17
2022-11-04T06:03:16.337Z,3.47
2022-11-04T06:05:43.571Z,3.87
2022-11-04T06:08:10.933Z,3.80
2022-11-04T06:10:38.127Z,3.87
2022-11-04T06:13:05.072Z,3.60
2022-11-04T06:15:32.087Z,3.40
2022-11-04T06:18:00.649Z,4.07
2022-11-04T06:20:28.026Z,4.30
2022-11-04T06:22:55.327Z,3.53
2022-11-04T06:25:22.269Z,3.57
2022-11-04T06:27:49.262Z,3.83
2022-11-04T06:30:16.593Z,3.50
2022-11-04T06:32:43.546Z,4.13
2022-11-04T06:35:13.517Z,3.70
2022-11-04T06:37:43.390Z,4.07
2022-11-04T06:40:11.420Z,3.70
2022-11-04T06:42:38.810Z,3.80
2022-11-04T06:45:07.210Z,3.57
2022-11-04T06:47:34.222Z,3.10
2022-11-04T06:50:01.946Z,3.23
2022-11-04T06:52:30.262Z,3.00
2022-11-04T06:55:00.345Z,3.30
2022-11-04T06:57:27.314Z,3.30
2022-11-04T06:59:54.491Z,3.30
2022-11-04T07:02:21.621Z,2.57
2022-11-04T07:04:48.695Z,2.50
2022-11-04T07:07:15.646Z,2.80
2022-11-04T07:09:44.179Z,2.83
2022-11-04T07:12:11.141Z,2.57
2022-11-04T07:14:38.193Z,2.40
2022-11-04T07:17:05.135Z,2.90
2022-11-04T07:19:32.152Z,2.83
2022-11-04T07:21:59.119Z,2.50
2022-11-04T07:24:26.066Z,3.03
2022-11-04T07:26:56.269Z,2.80
2022-11-04T07:29:25.280Z,3.37
2022-11-04T07:31:55.537Z,2.90
2022-11-04T07:34:22.847Z,3.20
2022-11-04T07:36:52.164Z,2.70
2022-11-04T07:39:19.162Z,2.93
2022-11-04T07:41:46.225Z,3.63
2022-11-04T07:44:14.571Z,3.10
2022-11-04T07:46:41.703Z,3.13
2022-11-04T07:49:08.767Z,3.37
2022-11-04T07:51:35.820Z,2.93
2022-11-04T07:54:02.966Z,3.27
2022-11-04T07:56:30.058Z,3.47
2022-11-04T07:58:57.628Z,2.77
2022-11-04T08:01:26.135Z,3.83
2022-11-04T08:03:53.617Z,4.00
2022-11-04T08:06:21.710Z,4.07
2022-11-04T08:08:49.196Z,3.80
2022-11-04T08:11:31.730Z,3.87
2022-11-04T08:14:19.144Z,3.73
2022-11-04T08:16:50.819Z,3.80
2022-11-04T08:19:17.754Z,3.97
2022-11-04T08:21:44.986Z,3.83
2022-11-04T08:24:12.113Z,3.90
2022-11-04T08:26:39.231Z,4.00
2022-11-04T08:29:08.188Z,3.57
2022-11-04T08:31:35.821Z,4.63
2022-11-04T08:34:06.033Z,4.03
2022-11-04T08:36:37.027Z,3.87
2022-11-04T08:39:10.396Z,3.50
2022-11-04T08:41:40.915Z,3.20
2022-11-04T08:44:08.789Z,4.77
2022-11-04T08:46:39.493Z,14.13
2022-11-04T08:49:10.234Z,4.60
2022-11-04T08:51:42.701Z,3.13
2022-11-04T08:54:10.419Z,3.40
2022-11-04T08:56:39.886Z,3.10
2022-11-04T08:59:08.181Z,3.50
2022-11-04T09:01:39.082Z,3.43
2022-11-04T09:04:10.211Z,2.93
2022-11-04T09:06:47.095Z,10.60
2022-11-04T09:09:17.193Z,4.83
2022-11-04T09:11:50.309Z,3.60
2022-11-04T09:14:26.165Z,3.97
2022-11-04T09:16:56.552Z,3.70
2022-11-04T09:19:30.281Z,3.43
2022-11-04T09:22:04.627Z,3.00
2022-11-04T09:24:34.899Z,2.40
2022-11-04T09:27:08.180Z,2.97
2022-11-04T09:29:53.644Z,2.40
2022-11-04T09:32:24.000Z,2.10
2022-11-04T09:34:52.620Z,2.00
2022-11-04T09:37:20.140Z,2.33
2022-11-04T09:39:53.842Z,2.00
2022-11-04T09:42:42.949Z,1.87
2022-11-04T09:45:22.578Z,3.23
2022-11-04T09:47:57.923Z,2.27
2022-11-04T09:50:33.126Z,2.93
2022-11-04T09:53:08.861Z,3.53
2022-11-04T09:55:46.758Z,2.80
2022-11-04T09:58:17.570Z,2.47
2022-11-04T10:00:58.391Z,2.67
2022-11-04T10:03:48.530Z,2.90
2022-11-04T10:06:40.959Z,4.03
2022-11-04T10:09:30.472Z,2.47
2022-11-04T10:12:21.857Z,2.67
2022-11-04T10:15:33.963Z,2.53
2022-11-04T10:18:25.583Z,2.43
2022-11-04T10:21:09.161Z,2.77
2022-11-04T10:23:46.520Z,2.20
2022-11-04T10:26:44.546Z,2.20
2022-11-04T10:29:19.905Z,2.20
2022-11-04T10:31:48.179Z,1.63
2022-11-04T10:34:32.980Z,1.83
2022-11-04T10:37:00.338Z,1.70
2022-11-04T10:39:48.610Z,1.60
2022-11-04T10:42:22.152Z,2.10
2022-11-04T10:44:52.136Z,2.07
2022-11-04T10:47:46.741Z,2.10
2022-11-04T10:50:35.420Z,1.80
2022-11-04T10:53:12.862Z,1.53
2022-11-04T10:55:52.192Z,1.70
2022-11-04T10:58:28.480Z,7.10
2022-11-04T11:01:00.715Z,1.93
2022-11-04T11:03:33.513Z,1.60
2022-11-04T11:06:26.688Z,1.70
2022-11-04T11:08:59.226Z,7.57
2022-11-04T11:11:48.337Z,2.73
2022-11-04T11:14:18.955Z,2.00
2022-11-04T11:16:49.394Z,2.20
2022-11-04T11:19:40.097Z,2.10
2022-11-04T11:22:56.561Z,3.03
2022-11-04T11:25:32.747Z,2.30
2022-11-04T11:28:08.679Z,2.10
2022-11-04T11:30:53.983Z,2.57
2022-11-04T11:33:27.815Z,2.27
2022-11-04T11:36:02.540Z,3.33
2022-11-04T11:38:33.168Z,3.10
2022-11-04T11:44:00.646Z,3.27
2022-11-04T11:46:31.857Z,2.67
2022-11-04T11:49:01.669Z,3.33
2022-11-04T11:51:35.383Z,2.90
2022-11-04T11:54:22.814Z,2.77
2022-11-04T12:03:13.228Z,2.77
2022-11-04T12:11:59.387Z,3.60
2022-11-04T12:14:49.167Z,2.93
2022-11-04T12:17:48.414Z,3.90
2022-11-04T12:20:39.973Z,3.70
2022-11-04T12:23:21.647Z,3.70
2022-11-04T12:26:10.992Z,3.77
2022-11-04T12:28:59.638Z,3.33
2022-11-04T12:31:41.830Z,4.13
2022-11-04T12:34:26.075Z,4.03
2022-11-04T12:37:11.454Z,3.23
2022-11-04T12:40:07.310Z,3.50
2022-11-04T12:42:54.805Z,4.43
2022-11-04T12:45:42.707Z,3.60
2022-11-04T12:48:18.290Z,3.33
2022-11-04T12:51:07.557Z,3.47
2022-11-04T12:54:16.141Z,3.50
2022-11-04T12:56:43.139Z,3.47
2022-11-04T12:59:54.006Z,2.90
2022-11-04T13:02:29.040Z,2.53
2022-11-04T13:05:03.875Z,2.77
2022-11-04T13:07:39.991Z,2.93
2022-11-04T13:10:18.813Z,2.80
2022-11-04T13:12:50.750Z,3.10
2022-11-04T13:15:22.592Z,2.70
2022-11-04T13:17:57.762Z,2.93
2022-11-04T13:20:34.470Z,3.13
2022-11-04T13:23:13.441Z,3.00
2022-11-04T13:25:45.973Z,2.67
2022-11-04T13:28:17.084Z,2.77
2022-11-04T13:30:55.441Z,2.80
2022-11-04T13:33:37.421Z,2.60
2022-11-04T13:36:23.587Z,2.30
2022-11-04T13:38:56.496Z,4.30
2022-11-04T13:42:17.334Z,2.30
2022-11-04T13:44:48.224Z,3.00
2022-11-04T13:47:22.367Z,2.43
2022-11-04T13:49:52.127Z,2.60
2022-11-04T13:52:19.832Z,1.57
2022-11-04T13:54:57.587Z,2.30
2022-11-04T13:57:28.205Z,2.20
2022-11-04T14:00:22.613Z,3.00
2022-11-04T14:02:51.127Z,2.10
2022-11-04T14:06:05.640Z,2.20
2022-11-04T14:08:34.402Z,2.07
2022-11-04T14:11:11.671Z,1.97
2022-11-04T14:14:00.425Z,2.23
2022-11-04T14:16:45.340Z,2.10
2022-11-04T14:20:00.552Z,2.10
2022-11-04T14:22:35.416Z,2.37
2022-11-04T14:25:20.513Z,2.07
2022-11-04T14:27:51.476Z,1.70
2022-11-04T14:30:35.784Z,2.00
2022-11-04T14:33:07.651Z,2.20
2022-11-04T14:35:36.423Z,2.20
2022-11-04T14:38:24.115Z,2.10
2022-11-04T14:41:14.542Z,2.10
2022-11-04T14:43:47.291Z,2.30
2022-11-04T14:46:23.294Z,2.10
2022-11-04T14:48:56.387Z,1.93
2022-11-04T14:51:30.166Z,2.27
2022-11-04T14:54:05.814Z,2.87
2022-11-04T14:56:33.155Z,2.43
2022-11-04T14:59:05.478Z,2.10
2022-11-04T15:01:35.566Z,2.20
2022-11-04T15:04:26.778Z,2.17
2022-11-04T15:06:55.903Z,2.10
2022-11-04T15:09:26.582Z,6.13
2022-11-04T15:12:24.765Z,3.13
2022-11-04T15:14:53.125Z,2.00
2022-11-04T15:17:25.507Z,2.40
2022-11-04T15:19:56.069Z,2.50
2022-11-04T15:22:24.094Z,1.80
2022-11-04T15:24:51.533Z,1.87
2022-11-04T15:27:27.986Z,2.07
2022-11-04T15:29:59.070Z,2.20
2022-11-04T15:32:27.390Z,1.80
2022-11-04T15:34:56.403Z,1.70
2022-11-04T15:37:25.551Z,1.87
2022-11-04T15:39:57.784Z,1.80
2022-11-04T15:42:43.472Z,2.43
2022-11-04T15:45:37.873Z,2.37
2022-11-04T15:48:29.853Z,1.63
2022-11-04T15:51:15.890Z,1.33
2022-11-04T15:53:55.750Z,2.10
2022-11-04T15:56:27.455Z,1.13
2022-11-04T15:58:58.025Z,1.57
2022-11-04T16:01:28.980Z,2.00
2022-11-04T16:03:58.927Z,1.50
2022-11-04T16:06:39.034Z,1.50
2022-11-04T16:09:22.784Z,1.60
2022-11-04T16:12:12.781Z,1.50
2022-11-04T16:14:48.780Z,1.47
2022-11-04T16:17:17.106Z,1.60
2022-11-04T16:19:49.213Z,1.87
2022-11-04T16:22:24.115Z,1.87
2022-11-04T16:24:53.962Z,1.60
2022-11-04T16:27:23.581Z,2.03
2022-11-04T16:30:02.683Z,2.47
2022-11-04T16:32:41.845Z,2.30
2022-11-04T16:35:24.704Z,2.63
2022-11-04T16:37:52.567Z,2.30
2022-11-04T16:40:21.582Z,2.60
2022-11-04T16:42:50.488Z,2.27
2022-11-04T16:45:25.290Z,2.30
2022-11-04T16:47:57.144Z,3.20
2022-11-04T16:50:24.764Z,3.37
2022-11-04T16:52:52.492Z,3.67
2022-11-04T16:55:21.460Z,2.97
2022-11-04T16:58:00.068Z,2.87
2022-11-04T17:00:29.054Z,2.40
2022-11-04T17:02:57.378Z,3.17
2022-11-04T17:05:24.427Z,2.37
2022-11-04T17:07:54.454Z,2.13
2022-11-04T17:10:26.766Z,2.53
2022-11-04T17:12:54.318Z,2.37
2022-11-04T17:15:22.462Z,2.43
2022-11-04T17:17:49.590Z,2.17
2022-11-04T17:20:20.164Z,2.67
2022-11-04T17:22:49.076Z,2.10
2022-11-04T17:25:19.953Z,2.10
2022-11-04T17:27:47.444Z,1.97
2022-11-04T17:30:16.934Z,3.10
2022-11-04T17:32:45.779Z,2.23
2022-11-04T17:35:13.649Z,2.57
2022-11-04T17:37:42.946Z,2.67
2022-11-04T17:40:15.633Z,2.10
2022-11-04T17:43:03.417Z,2.30
2022-11-04T17:45:33.402Z,2.33
2022-11-04T17:48:03.632Z,2.27
2022-11-04T17:50:31.668Z,2.67
2022-11-04T17:53:00.142Z,2.13
2022-11-04T17:55:27.853Z,1.90
2022-11-04T17:57:55.446Z,2.27
2022-11-04T18:00:29.236Z,2.47
2022-11-04T18:02:56.391Z,2.83
2022-11-04T18:05:23.393Z,2.70
2022-11-04T18:07:50.377Z,3.00
2022-11-04T18:10:19.041Z,3.10
2022-11-04T18:12:45.974Z,2.33
2022-11-04T18:15:17.017Z,2.77
2022-11-04T18:17:46.091Z,2.60
2022-11-04T18:20:15.739Z,2.30
2022-11-04T18:22:43.491Z,2.70
2022-11-04T18:25:11.691Z,2.57
2022-11-04T18:27:40.119Z,3.00
2022-11-04T18:30:09.293Z,3.87
2022-11-04T18:32:36.259Z,3.40
2022-11-04T18:35:03.527Z,3.27
2022-11-04T18:37:30.581Z,3.47
2022-11-04T18:39:57.497Z,3.40
2022-11-04T18:42:24.621Z,2.50
2022-11-04T18:44:52.924Z,3.67
2022-11-04T18:47:20.303Z,2.87
2022-11-04T18:49:47.732Z,3.17
2022-11-04T18:52:14.798Z,3.20
2022-11-04T18:54:42.973Z,3.57
2022-11-04T18:57:12.740Z,3.93
2022-11-04T18:59:39.746Z,3.63
2022-11-04T19:02:23.277Z,3.80
2022-11-04T19:04:50.955Z,3.33
2022-11-04T19:07:18.439Z,3.50
2022-11-04T19:09:47.420Z,3.80
2022-11-04T19:12:33.366Z,3.73
2022-11-04T19:15:00.457Z,3.37
2022-11-04T19:17:28.731Z,3.43
2022-11-04T19:19:55.652Z,3.37
2022-11-04T19:22:22.626Z,3.23
2022-11-04T19:24:49.652Z,3.47
2022-11-04T19:27:18.666Z,3.20
2022-11-04T19:29:45.737Z,3.40
2022-11-04T19:32:14.183Z,3.30
2022-11-04T19:34:43.913Z,3.27
2022-11-04T19:37:11.396Z,2.97
2022-11-04T19:39:39.107Z,2.97
2022-11-04T19:42:25.237Z,2.73
2022-11-04T19:44:52.857Z,3.77
2022-11-04T19:47:19.876Z,3.60
2022-11-04T19:49:48.202Z,3.30
2022-11-04T19:52:15.239Z,2.70
2022-11-04T19:54:42.161Z,3.10
2022-11-04T19:57:09.094Z,3.40
2022-11-04T19:59:36.074Z,2.60
2022-11-04T20:02:03.139Z,2.73
2022-11-04T20:04:30.186Z,2.47
2022-11-04T20:06:58.622Z,3.00
2022-11-04T20:09:25.967Z,2.83
2022-11-04T20:12:11.749Z,3.10
2022-11-04T20:14:38.668Z,2.47
2022-11-04T20:17:06.010Z,2.70
2022-11-04T20:19:33.434Z,3.13
2022-11-04T20:22:01.788Z,3.27
2022-11-04T20:24:28.978Z,2.73
2022-11-04T20:26:55.891Z,2.60
2022-11-04T20:29:22.833Z,3.30
2022-11-04T20:31:49.775Z,3.57
2022-11-04T20:34:16.722Z,4.90
2022-11-04T20:36:44.084Z,4.40
2022-11-04T20:39:15.176Z,4.03
2022-11-04T20:41:42.906Z,4.40
2022-11-04T20:44:11.325Z,4.60
2022-11-04T20:46:39.902Z,4.20
2022-11-04T20:49:07.514Z,4.60
2022-11-04T20:51:42.081Z,4.13
2022-11-04T20:54:12.409Z,4.53
2022-11-04T20:56:41.674Z,3.90
2022-11-04T20:59:12.236Z,3.70
2022-11-04T21:01:42.756Z,4.60
2022-11-04T21:04:14.774Z,4.03
2022-11-04T21:06:42.156Z,4.23
2022-11-04T21:09:13.423Z,4.20
2022-11-04T21:11:41.446Z,4.13
2022-11-04T21:14:12.067Z,4.73
2022-11-04T21:16:39.749Z,4.67
2022-11-04T21:19:07.713Z,4.70
2022-11-04T21:21:35.384Z,4.73
2022-11-04T21:24:05.645Z,4.50
2022-11-04T21:26:35.379Z,4.27
2022-11-04T21:29:05.307Z,4.40
2022-11-04T21:31:35.085Z,4.70
2022-11-04T21:34:03.868Z,4.37
2022-11-04T21:36:31.736Z,4.00
2022-11-04T21:38:59.191Z,4.10
2022-11-04T21:41:29.250Z,4.33
2022-11-04T21:43:59.610Z,4.23
2022-11-04T21:46:28.830Z,4.27
2022-11-04T21:48:56.908Z,4.27
2022-11-04T21:51:28.757Z,4.67
2022-11-04T21:53:56.675Z,4.40
2022-11-04T21:56:26.719Z,4.23
2022-11-04T21:58:54.824Z,4.27
2022-11-04T22:01:27.183Z,3.80
2022-11-04T22:03:59.173Z,4.80
2022-11-04T22:06:33.237Z,4.17
2022-11-04T22:09:02.142Z,4.23
2022-11-04T22:11:33.350Z,4.27
2022-11-04T22:14:04.484Z,4.00
2022-11-04T22:16:35.591Z,3.63
2022-11-04T22:19:06.298Z,4.30
2022-11-04T22:21:33.938Z,4.27
2022-11-04T22:24:01.777Z,4.13
2022-11-04T22:26:32.510Z,4.33
2022-11-04T22:28:59.856Z,4.30
2022-11-04T22:31:29.698Z,4.00
2022-11-04T22:33:59.690Z,3.97
2022-11-04T22:36:27.152Z,3.87
2022-11-04T22:38:54.924Z,3.53
2022-11-04T22:41:26.074Z,4.30
2022-11-04T22:43:53.180Z,4.17
2022-11-04T22:46:23.639Z,4.73
2022-11-04T22:48:50.624Z,4.70
2022-11-04T22:51:19.121Z,3.90
2022-11-04T22:53:48.094Z,4.33
2022-11-04T22:56:18.354Z,4.53
2022-11-04T22:58:45.253Z,4.67
2022-11-04T23:01:14.988Z,4.03
2022-11-04T23:03:42.421Z,4.17
2022-11-04T23:06:10.504Z,3.20
2022-11-04T23:08:40.077Z,4.07
2022-11-04T23:11:31.825Z,3.97
2022-11-04T23:14:20.940Z,3.97
2022-11-04T23:17:09.769Z,4.20
2022-11-04T23:19:38.413Z,4.23
2022-11-04T23:22:24.513Z,4.00
2022-11-04T23:25:10.892Z,3.83
2022-11-04T23:28:01.072Z,4.50
2022-11-04T23:30:31.954Z,4.33
2022-11-04T23:33:01.944Z,4.17
2022-11-04T23:35:51.299Z,4.07
2022-11-04T23:38:19.234Z,3.50
2022-11-04T23:41:08.421Z,4.10
2022-11-04T23:43:36.152Z,3.70
2022-11-04T23:46:22.546Z,3.43
2022-11-04T23:49:08.050Z,5.33
2022-11-04T23:51:53.557Z,3.97
2022-11-04T23:54:39.062Z,4.20
2022-11-04T23:57:32.064Z,4.27
